createdAt,value
2022-10-06T00:02:03.314Z,11.73
2022-10-06T00:05:05.309Z,11.35
2022-10-06T00:08:10.236Z,12.07
2022-10-06T00:11:13.003Z,11.63
2022-10-06T00:14:14.943Z,12.57
2022-10-06T00:17:16.906Z,11.43
2022-10-06T00:20:18.997Z,11.80
2022-10-06T00:23:21.132Z,11.85
2022-10-06T00:26:23.107Z,12.60
2022-10-06T00:29:25.848Z,11.25
2022-10-06T00:32:27.818Z,11.60
2022-10-06T00:35:32.502Z,12.65
2022-10-06T00:38:34.841Z,11.27
2022-10-06T00:41:36.797Z,12.27
2022-10-06T00:44:38.912Z,12.20
2022-10-06T00:47:41.862Z,12.45
2022-10-06T00:50:44.236Z,11.83
2022-10-06T00:53:46.203Z,11.27
2022-10-06T00:56:48.288Z,11.27
2022-10-06T00:59:50.812Z,13.07
2022-10-06T01:02:57.090Z,12.18
2022-10-06T01:06:00.057Z,12.52
2022-10-06T01:09:02.024Z,10.57
2022-10-06T01:12:05.539Z,11.27
2022-10-06T01:15:08.080Z,11.32
2022-10-06T01:18:13.881Z,10.88
2022-10-06T01:21:25.804Z,11.88
2022-10-06T01:24:28.657Z,13.00
2022-10-06T01:27:31.847Z,12.13
2022-10-06T01:30:53.681Z,11.23
2022-10-06T01:33:58.407Z,12.10
2022-10-06T01:37:00.424Z,12.25
2022-10-06T01:40:03.208Z,11.82
2022-10-06T01:43:05.154Z,12.02
2022-10-06T01:46:07.190Z,11.50
2022-10-06T01:49:09.263Z,11.57
2022-10-06T01:52:11.202Z,13.50
2022-10-06T01:55:14.589Z,12.02
2022-10-06T01:58:17.748Z,12.13
2022-10-06T02:01:20.659Z,12.65
2022-10-06T02:04:22.712Z,13.07
2022-10-06T02:07:25.228Z,12.07
2022-10-06T02:10:27.221Z,12.63
2022-10-06T02:13:30.040Z,11.30
2022-10-06T02:16:32.375Z,13.00
2022-10-06T02:19:34.782Z,11.50
2022-10-06T02:22:40.756Z,12.52
2022-10-06T02:25:42.717Z,11.95
2022-10-06T02:28:46.724Z,12.47
2022-10-06T02:31:52.284Z,11.55
2022-10-06T02:34:55.721Z,11.85
2022-10-06T02:37:57.807Z,12.90
2022-10-06T02:41:00.687Z,11.35
2022-10-06T02:44:02.748Z,11.65
2022-10-06T02:47:05.481Z,13.43
2022-10-06T02:50:07.796Z,10.67
2022-10-06T02:53:10.284Z,10.90
2022-10-06T02:56:16.105Z,11.57
2022-10-06T02:59:18.172Z,11.07
2022-10-06T03:02:20.573Z,12.10
2022-10-06T03:05:22.616Z,11.23
2022-10-06T03:08:24.723Z,10.73
2022-10-06T03:11:31.038Z,13.43
2022-10-06T03:14:33.488Z,11.48
2022-10-06T03:17:35.499Z,12.50
2022-10-06T03:20:37.464Z,13.07
2022-10-06T03:23:39.551Z,15.10
2022-10-06T03:26:42.547Z,14.63
2022-10-06T03:29:46.115Z,15.13
2022-10-06T03:32:49.760Z,13.38
2022-10-06T03:35:58.476Z,15.50
2022-10-06T03:39:02.796Z,14.70
2022-10-06T03:42:05.702Z,14.88
2022-10-06T03:45:08.004Z,14.40
2022-10-06T03:48:10.644Z,14.68
2022-10-06T03:51:23.081Z,14.70
2022-10-06T03:54:25.703Z,14.18
2022-10-06T03:57:28.229Z,14.15
2022-10-06T04:00:30.489Z,14.23
2022-10-06T04:03:32.938Z,14.82
2022-10-06T04:06:36.021Z,13.67
2022-10-06T04:09:39.015Z,14.30
2022-10-06T04:12:41.081Z,13.60
2022-10-06T04:15:43.313Z,14.90
2022-10-06T04:18:46.161Z,15.60
2022-10-06T04:21:48.307Z,16.67
2022-10-06T04:24:54.454Z,15.55
2022-10-06T04:27:57.517Z,16.53
2022-10-06T04:31:00.204Z,14.80
2022-10-06T04:34:02.373Z,14.10
2022-10-06T04:37:05.061Z,15.35
2022-10-06T04:40:07.905Z,15.10
2022-10-06T04:43:11.430Z,14.75
2022-10-06T04:46:40.994Z,13.57
2022-10-06T04:49:37.170Z,12.73
2022-10-06T04:52:39.902Z,13.55
2022-10-06T04:55:41.984Z,14.27
2022-10-06T04:58:45.393Z,14.15
2022-10-06T05:01:47.538Z,14.60
2022-10-06T05:04:49.988Z,15.65
2022-10-06T05:07:52.848Z,15.55
2022-10-06T05:11:05.828Z,15.73
2022-10-06T05:14:07.855Z,13.10
2022-10-06T05:17:13.036Z,16.10
2022-10-06T05:20:16.129Z,15.30
2022-10-06T05:23:18.857Z,17.33
2022-10-06T05:26:22.897Z,17.05
2022-10-06T05:29:25.242Z,15.88
2022-10-06T05:32:27.207Z,15.33
2022-10-06T05:35:29.825Z,15.90
2022-10-06T05:38:33.272Z,14.85
2022-10-06T05:41:37.914Z,15.33
2022-10-06T05:44:42.811Z,16.27
2022-10-06T05:47:48.544Z,16.35
2022-10-06T05:51:05.819Z,18.05
2022-10-06T05:54:12.999Z,17.30
2022-10-06T05:57:15.632Z,17.52
2022-10-06T06:00:18.328Z,16.27
2022-10-06T06:03:21.257Z,16.17
2022-10-06T06:06:24.691Z,16.70
2022-10-06T06:09:29.058Z,13.57
2022-10-06T06:12:35.921Z,14.23
2022-10-06T06:16:06.049Z,14.50
2022-10-06T06:19:10.858Z,12.85
2022-10-06T06:22:15.992Z,11.07
2022-10-06T06:25:20.320Z,11.73
2022-10-06T06:28:22.635Z,13.13
2022-10-06T06:31:30.933Z,12.85
2022-10-06T06:34:33.240Z,11.70
2022-10-06T06:37:35.997Z,11.07
2022-10-06T06:40:41.513Z,12.48
2022-10-06T06:43:45.399Z,12.38
2022-10-06T06:47:19.871Z,11.60
2022-10-06T06:50:24.066Z,10.67
2022-10-06T06:53:29.569Z,11.80
2022-10-06T06:56:37.977Z,11.20
2022-10-06T06:59:42.443Z,11.63
2022-10-06T07:02:47.529Z,11.10
2022-10-06T07:05:49.739Z,11.07
2022-10-06T07:08:53.102Z,11.95
2022-10-06T07:11:55.273Z,11.32
2022-10-06T07:15:16.925Z,11.47
2022-10-06T07:18:40.859Z,10.85
2022-10-06T07:22:01.720Z,10.65
2022-10-06T07:25:11.762Z,10.10
2022-10-06T07:28:17.322Z,10.80
2022-10-06T07:31:20.024Z,11.63
2022-10-06T07:34:23.249Z,12.00
2022-10-06T07:37:25.702Z,9.63
2022-10-06T07:40:29.464Z,11.05
2022-10-06T07:43:34.136Z,12.83
2022-10-06T07:46:36.207Z,9.77
2022-10-06T07:49:46.471Z,11.85
2022-10-06T07:52:48.941Z,10.80
2022-10-06T07:55:52.207Z,11.13
2022-10-06T07:58:58.744Z,10.50
2022-10-06T08:02:00.858Z,10.73
2022-10-06T08:05:03.635Z,11.55
2022-10-06T08:08:06.161Z,11.40
2022-10-06T08:11:08.382Z,12.90
2022-10-06T08:14:10.402Z,12.43
2022-10-06T08:17:12.534Z,9.75
2022-10-06T08:20:14.707Z,12.00
2022-10-06T08:23:16.759Z,12.02
2022-10-06T08:26:19.841Z,11.80
2022-10-06T08:29:22.882Z,10.67
2022-10-06T08:32:25.448Z,11.13
2022-10-06T08:35:27.638Z,11.43
2022-10-06T08:38:29.862Z,10.20
2022-10-06T08:41:48.580Z,11.43
2022-10-06T08:44:56.886Z,11.17
2022-10-06T08:48:03.185Z,10.73
2022-10-06T08:51:05.395Z,10.00
2022-10-06T08:54:13.590Z,10.90
2022-10-06T08:57:25.672Z,11.27
2022-10-06T09:00:33.452Z,9.97
2022-10-06T09:03:37.811Z,10.18
2022-10-06T09:06:45.690Z,10.05
2022-10-06T09:10:06.252Z,10.57
2022-10-06T09:13:21.587Z,11.48
2022-10-06T09:16:28.877Z,11.30
2022-10-06T09:19:42.674Z,9.60
2022-10-06T09:22:44.823Z,10.50
2022-10-06T09:25:47.122Z,10.60
2022-10-06T09:28:50.014Z,9.18
2022-10-06T09:31:53.901Z,9.77
2022-10-06T09:35:00.157Z,9.68
2022-10-06T09:38:08.802Z,8.70
2022-10-06T09:41:14.026Z,8.68
2022-10-06T09:44:27.606Z,9.25
2022-10-06T09:47:32.425Z,9.43
2022-10-06T09:50:35.274Z,7.30
2022-10-06T09:53:39.630Z,7.13
2022-10-06T09:56:42.125Z,6.55
2022-10-06T09:59:45.423Z,6.15
2022-10-06T10:02:47.940Z,5.70
2022-10-06T10:05:51.353Z,5.53
2022-10-06T10:09:12.032Z,5.60
2022-10-06T10:12:33.586Z,5.85
2022-10-06T10:15:40.050Z,5.47
2022-10-06T10:18:46.427Z,5.83
2022-10-06T10:21:48.773Z,5.20
2022-10-06T10:25:06.330Z,5.43
2022-10-06T10:28:15.889Z,5.53
2022-10-06T10:31:18.369Z,5.25
2022-10-06T10:34:40.336Z,4.83
2022-10-06T10:38:05.767Z,5.45
2022-10-06T10:41:13.365Z,5.20
2022-10-06T10:44:23.719Z,5.35
2022-10-06T10:47:30.960Z,5.50
2022-10-06T10:50:43.319Z,6.63
2022-10-06T10:53:55.020Z,5.93
2022-10-06T10:56:58.472Z,5.07
2022-10-06T11:00:01.406Z,4.70
2022-10-06T11:03:03.682Z,5.82
2022-10-06T11:06:14.971Z,4.70
2022-10-06T11:09:38.761Z,5.78
2022-10-06T11:12:49.853Z,5.32
2022-10-06T11:15:58.125Z,5.85
2022-10-06T11:19:06.318Z,6.03
2022-10-06T11:22:14.861Z,6.30
2022-10-06T11:25:19.400Z,5.10
2022-10-06T11:28:25.011Z,5.75
2022-10-06T11:31:33.161Z,5.07
2022-10-06T11:34:35.218Z,5.90
2022-10-06T11:37:45.243Z,5.67
2022-10-06T11:40:52.472Z,5.38
2022-10-06T11:44:04.342Z,5.80
2022-10-06T11:47:11.167Z,5.63
2022-10-06T11:50:33.274Z,5.95
2022-10-06T11:53:39.698Z,5.87
2022-10-06T11:56:41.759Z,5.45
2022-10-06T11:59:43.731Z,5.80
2022-10-06T12:02:46.908Z,5.03
2022-10-06T12:05:56.130Z,5.95
2022-10-06T12:08:58.648Z,4.83
2022-10-06T12:12:17.827Z,6.00
2022-10-06T12:19:16.938Z,5.18
2022-10-06T12:22:31.023Z,5.95
2022-10-06T12:25:38.593Z,5.57
2022-10-06T12:28:50.363Z,5.10
2022-10-06T12:31:52.761Z,4.90
2022-10-06T12:35:01.004Z,6.88
2022-10-06T12:38:06.837Z,5.75
2022-10-06T12:41:28.746Z,5.40
2022-10-06T12:44:38.139Z,6.00
2022-10-06T12:47:43.422Z,5.50
2022-10-06T12:50:45.393Z,5.63
2022-10-06T12:53:50.481Z,6.00
2022-10-06T12:57:02.812Z,5.20
2022-10-06T13:00:21.476Z,5.30
2022-10-06T13:03:24.529Z,5.50
2022-10-06T13:06:26.544Z,5.35
2022-10-06T13:09:28.546Z,5.20
2022-10-06T13:12:31.803Z,5.43
2022-10-06T13:15:35.572Z,5.05
2022-10-06T13:18:37.515Z,5.22
2022-10-06T13:21:39.562Z,5.03
2022-10-06T13:24:41.515Z,5.45
2022-10-06T13:27:48.722Z,5.30
2022-10-06T13:34:11.447Z,5.63
2022-10-06T13:37:14.860Z,5.57
2022-10-06T13:40:22.099Z,6.10
2022-10-06T13:43:39.826Z,5.30
2022-10-06T13:46:44.392Z,5.57
2022-10-06T13:49:51.390Z,5.85
2022-10-06T13:52:53.385Z,5.07
2022-10-06T13:55:55.459Z,5.80
2022-10-06T13:58:57.428Z,6.03
2022-10-06T14:02:20.439Z,5.78
2022-10-06T14:05:31.417Z,3.70
2022-10-06T14:08:33.802Z,4.57
2022-10-06T14:11:35.895Z,4.57
2022-10-06T14:14:38.328Z,3.23
2022-10-06T14:17:41.090Z,3.83
2022-10-06T14:20:47.302Z,4.07
2022-10-06T14:23:49.551Z,3.83
2022-10-06T14:26:52.232Z,4.68
2022-10-06T14:29:55.677Z,4.77
2022-10-06T14:32:57.764Z,4.70
2022-10-06T14:35:59.832Z,4.75
2022-10-06T14:39:02.784Z,4.65
2022-10-06T14:42:04.956Z,4.57
2022-10-06T14:45:08.895Z,4.83
2022-10-06T14:48:11.633Z,4.05
2022-10-06T14:51:13.610Z,4.97
2022-10-06T14:54:15.585Z,4.43
2022-10-06T14:57:17.510Z,5.60
2022-10-06T15:00:20.838Z,5.57
2022-10-06T15:03:22.853Z,4.20
2022-10-06T15:06:43.808Z,5.20
2022-10-06T15:09:45.765Z,5.68
2022-10-06T15:12:47.688Z,7.95
2022-10-06T15:15:56.950Z,7.20
2022-10-06T15:18:59.568Z,8.25
2022-10-06T15:22:01.546Z,7.03
2022-10-06T15:25:03.637Z,7.30
2022-10-06T15:28:24.152Z,6.45
2022-10-06T15:31:26.940Z,6.23
2022-10-06T15:34:29.786Z,7.10
2022-10-06T15:37:31.813Z,6.90
2022-10-06T15:40:33.763Z,7.60
2022-10-06T15:43:55.061Z,8.38
2022-10-06T15:46:57.381Z,7.77
2022-10-06T15:49:59.428Z,9.15
2022-10-06T15:53:01.343Z,10.15
2022-10-06T15:56:04.349Z,9.70
2022-10-06T15:59:06.890Z,11.18
2022-10-06T16:02:16.212Z,11.77
2022-10-06T16:05:38.209Z,12.85
2022-10-06T16:08:40.202Z,12.05
2022-10-06T16:11:42.240Z,11.10
2022-10-06T16:14:44.726Z,12.00
2022-10-06T16:17:46.727Z,11.00
2022-10-06T16:20:55.524Z,11.23
2022-10-06T16:23:57.952Z,13.05
2022-10-06T16:27:00.187Z,12.70
2022-10-06T16:30:02.309Z,12.63
2022-10-06T16:33:04.295Z,11.23
2022-10-06T16:36:06.353Z,13.48
2022-10-06T16:39:11.148Z,14.10
2022-10-06T16:42:13.088Z,12.90
2022-10-06T16:45:15.171Z,12.02
2022-10-06T16:48:17.085Z,12.10
2022-10-06T16:51:23.101Z,10.80
2022-10-06T16:54:25.589Z,11.80
2022-10-06T16:57:27.733Z,10.13
2022-10-06T17:00:29.754Z,10.70
2022-10-06T17:03:31.795Z,10.00
2022-10-06T17:06:34.791Z,10.60
2022-10-06T17:09:36.921Z,12.68
2022-10-06T17:12:39.226Z,12.38
2022-10-06T17:15:41.431Z,12.02
2022-10-06T17:18:44.058Z,13.27
2022-10-06T17:21:48.801Z,13.68
2022-10-06T17:24:52.572Z,13.23
2022-10-06T17:27:54.520Z,12.82
2022-10-06T17:30:59.621Z,15.38
2022-10-06T17:34:05.499Z,14.47
2022-10-06T17:37:07.610Z,15.25
2022-10-06T17:40:09.601Z,14.73
2022-10-06T17:43:11.540Z,14.95
2022-10-06T17:46:15.234Z,16.90
2022-10-06T17:49:20.076Z,15.57
2022-10-06T17:52:24.350Z,17.67
2022-10-06T17:55:27.940Z,17.13
2022-10-06T17:58:30.197Z,16.35
2022-10-06T18:01:32.796Z,18.88
2022-10-06T18:04:35.917Z,23.30
2022-10-06T18:07:38.317Z,23.55
2022-10-06T18:11:05.371Z,29.77
2022-10-06T18:14:08.587Z,32.42
2022-10-06T18:17:10.510Z,24.95
2022-10-06T18:20:12.466Z,28.37
2022-10-06T18:23:14.855Z,28.98
2022-10-06T18:26:18.037Z,25.40
2022-10-06T18:29:21.888Z,25.67
2022-10-06T18:36:12.272Z,25.77
2022-10-06T18:39:13.875Z,25.70
2022-10-06T18:42:15.793Z,23.42
2022-10-06T18:45:39.423Z,24.23
2022-10-06T18:49:00.277Z,25.85
2022-10-06T18:52:02.403Z,23.77
2022-10-06T18:55:04.491Z,25.73
2022-10-06T18:58:06.501Z,26.25
2022-10-06T19:01:08.847Z,25.95
2022-10-06T19:04:13.117Z,26.65
2022-10-06T19:07:15.286Z,28.33
2022-10-06T19:10:17.241Z,31.05
2022-10-06T19:13:20.329Z,35.28
2022-10-06T19:16:22.536Z,36.42
2022-10-06T19:19:26.447Z,38.78
2022-10-06T19:22:28.497Z,30.43
2022-10-06T19:25:30.445Z,34.53
2022-10-06T19:28:33.294Z,45.85
2022-10-06T19:31:41.355Z,48.35
2022-10-06T19:34:43.628Z,45.63
2022-10-06T19:37:45.975Z,47.80
2022-10-06T19:40:48.301Z,51.20
2022-10-06T19:43:50.760Z,47.40
2022-10-06T19:46:55.042Z,43.03
2022-10-06T19:50:02.123Z,43.20
2022-10-06T19:53:06.162Z,41.77
2022-10-06T19:56:08.141Z,43.85
2022-10-06T19:59:13.630Z,45.25
2022-10-06T20:02:15.566Z,44.22
2022-10-06T20:05:17.620Z,40.63
2022-10-06T20:08:20.440Z,42.73
2022-10-06T20:11:22.381Z,41.58
2022-10-06T20:14:24.420Z,39.42
2022-10-06T20:17:28.113Z,39.65
2022-10-06T20:20:30.077Z,40.53
2022-10-06T20:23:32.847Z,40.03
2022-10-06T20:26:38.561Z,38.88
2022-10-06T20:29:40.500Z,36.08
2022-10-06T20:32:42.442Z,37.90
2022-10-06T20:35:45.869Z,35.97
2022-10-06T20:39:06.420Z,37.87
2022-10-06T20:42:13.945Z,35.55
2022-10-06T20:45:17.154Z,38.58
2022-10-06T20:48:19.117Z,37.70
2022-10-06T20:51:25.435Z,38.27
2022-10-06T20:54:35.069Z,36.17
2022-10-06T20:57:37.170Z,38.75
2022-10-06T21:00:39.289Z,40.67
2022-10-06T21:03:45.095Z,39.13
2022-10-06T21:06:47.472Z,40.60
2022-10-06T21:09:52.212Z,38.72
2022-10-06T21:12:55.836Z,31.45
2022-10-06T21:16:00.530Z,29.13
2022-10-06T21:19:03.934Z,28.03
2022-10-06T21:22:06.149Z,28.67
2022-10-06T21:25:08.291Z,27.45
2022-10-06T21:28:10.291Z,27.23
2022-10-06T21:31:13.611Z,26.55
2022-10-06T21:34:15.607Z,24.57
2022-10-06T21:37:17.553Z,25.67
2022-10-06T21:40:19.479Z,25.70
2022-10-06T21:43:21.459Z,25.20
2022-10-06T21:46:28.810Z,22.83
2022-10-06T21:49:31.045Z,24.45
2022-10-06T21:52:33.013Z,24.75
2022-10-06T21:55:34.989Z,25.23
2022-10-06T21:58:36.923Z,24.33
2022-10-06T22:01:40.163Z,24.98
2022-10-06T22:04:42.141Z,25.58
2022-10-06T22:07:44.393Z,25.38
2022-10-06T22:10:46.457Z,24.47
2022-10-06T22:13:49.543Z,25.90
2022-10-06T22:16:51.503Z,27.95
2022-10-06T22:19:53.523Z,29.13
2022-10-06T22:22:55.420Z,26.10
2022-10-06T22:25:57.802Z,27.45
2022-10-06T22:29:00.086Z,28.13
2022-10-06T22:32:02.009Z,26.33
2022-10-06T22:35:04.106Z,27.77
2022-10-06T22:38:06.060Z,28.70
2022-10-06T22:41:09.505Z,26.65
2022-10-06T22:44:11.468Z,25.97
2022-10-06T22:47:14.216Z,24.67
2022-10-06T22:50:16.458Z,22.92
2022-10-06T22:53:19.431Z,23.50
2022-10-06T22:56:21.633Z,22.43
2022-10-06T22:59:23.600Z,23.42
2022-10-06T23:02:25.496Z,23.73
2022-10-06T23:05:27.524Z,24.23
2022-10-06T23:08:34.906Z,24.57
2022-10-06T23:11:37.372Z,24.63
2022-10-06T23:14:39.254Z,25.15
2022-10-06T23:17:42.137Z,25.42
2022-10-06T23:20:44.310Z,25.50
2022-10-06T23:23:46.302Z,25.02
2022-10-06T23:26:48.229Z,25.27
2022-10-06T23:29:50.522Z,26.38
2022-10-06T23:32:52.447Z,29.20
2022-10-06T23:35:58.458Z,26.90
2022-10-06T23:39:00.578Z,28.60
2022-10-06T23:42:02.490Z,29.80
2022-10-06T23:45:04.601Z,26.70
2022-10-06T23:48:06.528Z,28.58
2022-10-06T23:51:09.651Z,29.35
2022-10-06T23:54:12.376Z,28.00
2022-10-06T23:57:14.339Z,26.35
